| time (UTC) | temp C | wind direction | speed KPH | gust KPH | rain 1hr cm | rain 24hr cm | rain mn cm | humidity % | barometer mb |
| 20260507080033 | 11 | 217 | 0.0 | 0.0 | 0.00 | 0.00 | 0.00 | 100 | 1023.1 |
| 20260507075533 | 11 | 217 | 0.0 | 0.0 | 0.00 | 0.00 | 0.00 | 100 | 1023.1 |
| 20260507075033 | 11 | 217 | 0.0 | 0.0 | 0.00 | 0.00 | 0.00 | 100 | 1023.1 |
| 20260507074532 | 11 | 217 | 0.0 | 0.0 | 0.00 | 0.00 | 0.00 | 100 | 1023.0 |
| 20260507074031 | 11 | 217 | 0.0 | 0.0 | 0.00 | 0.00 | 0.00 | 100 | 1023.1 |
| 20260507073530 | 11 | 217 | 0.0 | 0.0 | 0.00 | 0.00 | 0.00 | 100 | 1023.2 |
| 20260507073031 | 11 | 217 | 0.0 | 0.0 | 0.00 | 0.00 | 0.00 | 100 | 1023.1 |
| 20260507072528 | 11 | 217 | 0.0 | 0.0 | 0.00 | 0.00 | 0.00 | 100 | 1023.1 |
| 20260507072027 | 11 | 217 | 0.0 | 0.0 | 0.00 | 0.00 | 0.00 | 100 | 1023.1 |
| 20260507071815 | 11 | 217 | 0.0 | 0.0 | 0.00 | 0.00 | 0.00 | 100 | 1023.0 |
| 20260507071042 | 11 | 217 | 0.0 | 0.0 | 0.00 | 0.00 | 0.00 | 100 | 1023.1 |
| 20260507071033 | 11 | 217 | 0.0 | 0.0 | 0.00 | 0.00 | 0.00 | 100 | 1023.1 |
| 20260507070019 | 11 | 217 | 0.0 | 0.0 | 0.00 | 0.00 | 0.00 | 100 | 1023.1 |
| 20260507065518 | 11 | 217 | 0.0 | 0.0 | 0.00 | 0.00 | 0.00 | 100 | 1023.2 |
| 20260507065016 | 11 | 217 | 0.0 | 0.0 | 0.00 | 0.00 | 0.00 | 100 | 1023.2 |
| 20260507064516 | 11 | 217 | 0.0 | 0.0 | 0.00 | 0.00 | 0.00 | 100 | 1023.2 |
| 20260507064020 | 11 | 217 | 0.0 | 0.0 | 0.00 | 0.00 | 0.00 | 100 | 1023.2 |
| 20260507063514 | 11 | 217 | 0.0 | 0.0 | 0.00 | 0.00 | 0.00 | 100 | 1023.2 |
| 20260507063008 | 11 | 217 | 0.0 | 0.0 | 0.00 | 0.00 | 0.00 | 100 | 1023.2 |
| 20260507062502 | 11 | 217 | 0.0 | 0.0 | 0.00 | 0.00 | 0.00 | 100 | 1023.2 |
| 20260507061956 | 11 | 217 | 0.0 | 0.0 | 0.00 | 0.00 | 0.00 | 100 | 1023.3 |
| 20260507061453 | 11 | 288 | 0.0 | 0.0 | 0.00 | 0.00 | 0.00 | 100 | 1023.3 |
| 20260507061222 | 11 | 288 | 0.0 | 0.0 | 0.00 | 0.00 | 0.00 | 100 | 1023.3 |
| 20260507060440 | 11 | 288 | 0.0 | 0.0 | 0.00 | 0.00 | 0.00 | 100 | 1023.4 |
| 20260507055933 | 11 | 288 | 0.0 | 0.0 | 0.00 | 0.00 | 0.00 | 100 | 1023.3 |
| 20260507055426 | 11 | 288 | 0.0 | 0.0 | 0.00 | 0.00 | 0.00 | 100 | 1023.4 |
| 20260507054920 | 11 | 288 | 0.0 | 0.0 | 0.00 | 0.00 | 0.00 | 100 | 1023.5 |
| 20260507054415 | 11 | 288 | 0.0 | 0.0 | 0.00 | 0.00 | 0.00 | 100 | 1023.4 |
| 20260507053910 | 11 | 288 | 0.0 | 0.0 | 0.00 | 0.00 | 0.00 | 100 | 1023.5 |
| 20260507053404 | 11 | 288 | 0.0 | 0.0 | 0.00 | 0.00 | 0.00 | 100 | 1023.4 |
| 20260507052905 | 11 | 288 | 0.0 | 0.0 | 0.00 | 0.00 | 0.00 | 100 | 1023.5 |
| 20260507052350 | 11 | 288 | 0.0 | 0.0 | 0.00 | 0.00 | 0.00 | 100 | 1023.4 |
| 20260507051845 | 11 | 288 | 0.0 | 0.0 | 0.00 | 0.00 | 0.00 | 100 | 1023.4 |
| 20260507051339 | 11 | 288 | 0.0 | 0.0 | 0.00 | 0.00 | 0.00 | 100 | 1023.4 |
| 20260507050831 | 12 | 288 | 0.0 | 0.0 | 0.00 | 0.00 | 0.00 | 100 | 1023.4 |
| 20260507050326 | 12 | 288 | 0.0 | 0.0 | 0.00 | 0.00 | 0.00 | 100 | 1023.5 |
| 20260507050105 | 12 | 288 | 0.0 | 0.0 | 0.00 | 0.00 | 0.00 | 100 | 1023.4 |
| 20260507045316 | 12 | 288 | 0.0 | 0.0 | 0.00 | 0.00 | 0.00 | 100 | 1023.5 |
| 20260507044810 | 12 | 288 | 0.0 | 0.0 | 0.00 | 0.00 | 0.00 | 100 | 1023.5 |
| 20260507044302 | 12 | 288 | 0.0 | 0.0 | 0.00 | 0.00 | 0.00 | 100 | 1023.4 |
| 20260507043756 | 12 | 288 | 0.0 | 0.0 | 0.00 | 0.00 | 0.00 | 100 | 1023.5 |
| 20260507043253 | 12 | 288 | 0.0 | 0.0 | 0.00 | 0.00 | 0.00 | 100 | 1023.5 |
| 20260507043031 | 12 | 288 | 0.0 | 0.0 | 0.00 | 0.00 | 0.00 | 100 | 1023.4 |
| 20260507043026 | 12 | 288 | 0.0 | 0.0 | 0.00 | 0.00 | 0.00 | 100 | 1023.5 |
| 20260507041732 | 12 | 288 | 0.0 | 0.0 | 0.00 | 0.00 | 0.00 | 100 | 1023.5 |
| 20260507041508 | 12 | 288 | 0.0 | 0.0 | 0.00 | 0.00 | 0.00 | 100 | 1023.5 |
| 20260507040724 | 12 | 288 | 0.0 | 0.0 | 0.00 | 0.00 | 0.00 | 100 | 1023.4 |
| 20260507040501 | 12 | 288 | 0.0 | 0.0 | 0.00 | 0.00 | 0.00 | 100 | 1023.4 |
| 20260507035708 | 12 | 288 | 0.0 | 0.0 | 0.00 | 0.00 | 0.00 | 100 | 1023.4 |
| 20260507035447 | 12 | 288 | 0.0 | 0.0 | 0.00 | 0.00 | 0.00 | 100 | 1023.4 |
| 20260507034657 | 12 | 288 | 0.0 | 0.0 | 0.00 | 0.00 | 0.00 | 100 | 1023.4 |
| 20260507034440 | 12 | 288 | 0.0 | 0.0 | 0.00 | 0.00 | 0.00 | 100 | 1023.3 |
| 20260507033644 | 12 | 288 | 0.0 | 0.0 | 0.00 | 0.00 | 0.00 | 100 | 1023.4 |
| 20260507033141 | 12 | 288 | 0.0 | 0.0 | 0.00 | 0.00 | 0.00 | 100 | 1023.3 |
| 20260507032632 | 12 | 288 | 0.0 | 0.0 | 0.00 | 0.00 | 0.00 | 100 | 1023.2 |
| 20260507032130 | 12 | 288 | 0.0 | 0.0 | 0.00 | 0.00 | 0.00 | 100 | 1023.3 |
| 20260507031621 | 12 | 288 | 0.0 | 0.0 | 0.00 | 0.00 | 0.00 | 100 | 1023.2 |
| 20260507031115 | 12 | 288 | 0.0 | 0.0 | 0.00 | 0.00 | 0.00 | 100 | 1023.3 |
| 20260507030608 | 12 | 288 | 0.0 | 0.0 | 0.00 | 0.00 | 0.00 | 100 | 1023.2 |
| 20260507030351 | 12 | 173 | 0.0 | 0.0 | 0.00 | 0.00 | 0.00 | 100 | 1023.2 |
| 20260507025559 | 12 | 251 | 0.0 | 0.0 | 0.00 | 0.00 | 0.00 | 100 | 1023.2 |
| 20260507025056 | 12 | 251 | 0.0 | 0.0 | 0.00 | 0.00 | 0.00 | 100 | 1023.2 |
| 20260507024557 | 12 | 251 | 0.0 | 0.0 | 0.00 | 0.00 | 0.00 | 100 | 1023.2 |
| 20260507024056 | 12 | 251 | 0.0 | 0.0 | 0.00 | 0.00 | 0.00 | 100 | 1023.1 |
| 20260507023554 | 12 | 251 | 0.0 | 0.0 | 0.00 | 0.00 | 0.00 | 100 | 1023.2 |
| 20260507023343 | 12 | 251 | 0.0 | 0.0 | 0.00 | 0.00 | 0.00 | 100 | 1023.1 |
| 20260507022551 | 12 | 251 | 0.0 | 0.0 | 0.00 | 0.00 | 0.00 | 100 | 1023.2 |
| 20260507022052 | 12 | 301 | 0.0 | 0.0 | 0.00 | 0.00 | 0.00 | 100 | 1023.1 |
| 20260507021551 | 12 | 315 | 0.0 | 0.0 | 0.00 | 0.00 | 0.00 | 100 | 1023.1 |
| 20260507021051 | 12 | 315 | 0.0 | 1.6 | 0.00 | 0.00 | 0.00 | 100 | 1023.1 |
| 20260507020549 | 12 | 323 | 0.0 | 1.6 | 0.00 | 0.00 | 0.00 | 100 | 1023.1 |
| 20260507020053 | 12 | 309 | 0.0 | 1.6 | 0.00 | 0.00 | 0.00 | 100 | 1023.2 |
| 20260507015549 | 13 | 355 | 0.0 | 0.0 | 0.00 | 0.00 | 0.00 | 100 | 1023.2 |
| 20260507015327 | 13 | 5 | 0.0 | 4.8 | 0.00 | 0.00 | 0.00 | 100 | 1023.2 |
| 20260507014545 | 13 | 5 | 0.0 | 6.4 | 0.00 | 0.00 | 0.00 | 100 | 1023.2 |
| 20260507014045 | 13 | 231 | 0.0 | 6.4 | 0.00 | 0.00 | 0.00 | 100 | 1023.3 |
| 20260507013816 | 13 | 316 | 0.0 | 0.0 | 0.00 | 0.00 | 0.00 | 100 | 1023.2 |
| 20260507013040 | 13 | 316 | 0.0 | 0.0 | 0.00 | 0.00 | 0.00 | 100 | 1023.3 |
| 20260507012537 | 13 | 316 | 0.0 | 3.2 | 0.00 | 0.00 | 0.00 | 100 | 1023.3 |
| 20260507012037 | 13 | 317 | 0.0 | 3.2 | 0.00 | 0.00 | 0.00 | 100 | 1023.3 |
| 20260507011535 | 13 | 306 | 0.0 | 3.2 | 0.00 | 0.00 | 0.00 | 100 | 1023.3 |
| 20260507011036 | 13 | 306 | 0.0 | 3.2 | 0.00 | 0.00 | 0.00 | 100 | 1023.4 |
| 20260507010820 | 13 | 273 | 0.0 | 3.2 | 0.00 | 0.00 | 0.00 | 100 | 1023.4 |
| 20260507010041 | 13 | 242 | 0.0 | 3.2 | 0.00 | 0.00 | 0.00 | 100 | 1023.4 |
| 20260507005607 | 13 | 262 | 0.0 | 0.0 | 0.00 | 0.00 | 0.00 | 100 | 1023.4 |
| 20260507005551 | 13 | 257 | 0.0 | 3.2 | 0.00 | 0.00 | 0.00 | 100 | 1023.4 |
| 20260507004535 | 13 | 262 | 0.0 | 0.0 | 0.00 | 0.00 | 0.00 | 100 | 1023.4 |
| 20260507004035 | 12 | 262 | 0.0 | 0.0 | 0.00 | 0.00 | 0.00 | 100 | 1023.4 |
| 20260507003537 | 12 | 293 | 0.0 | 3.2 | 0.00 | 0.00 | 0.00 | 100 | 1023.4 |
| 20260507003318 | 12 | 293 | 0.0 | 3.2 | 0.00 | 0.00 | 0.00 | 100 | 1023.5 |
| 20260507002532 | 12 | 150 | 0.0 | 3.2 | 0.00 | 0.00 | 0.00 | 100 | 1023.4 |
| 20260507002032 | 12 | 238 | 0.0 | 1.6 | 0.00 | 0.00 | 0.00 | 100 | 1023.5 |
| 20260507001814 | 12 | 239 | 0.0 | 3.2 | 0.00 | 0.00 | 0.00 | 100 | 1023.5 |
| 20260507001030 | 12 | 355 | 1.6 | 4.8 | 0.00 | 0.00 | 0.00 | 100 | 1023.5 |
| 20260507000531 | 12 | 273 | 1.6 | 6.4 | 0.00 | 0.00 | 0.00 | 100 | 1023.5 |
| 20260507000032 | 13 | 300 | 1.6 | 8.0 | 0.00 | 0.00 | 0.00 | 100 | 1023.5 |
| 20260506235530 | 13 | 245 | 1.6 | 8.0 | 0.00 | 0.00 | 0.00 | 100 | 1023.4 |
| 20260506235031 | 13 | 223 | 1.6 | 8.0 | 0.00 | 0.00 | 0.00 | 100 | 1023.4 |
| 20260506234531 | 13 | 271 | 1.6 | 8.0 | 0.00 | 0.00 | 0.00 | 100 | 1023.5 |
| 20260506234038 | 13 | 329 | 1.6 | 4.8 | 0.00 | 0.00 | 0.00 | 100 | 1023.6 |
| 20260506233812 | 13 | 325 | 1.6 | 6.4 | 0.00 | 0.00 | 0.00 | 100 | 1023.6 |
| 20260506233036 | 13 | 219 | 0.0 | 6.4 | 0.00 | 0.00 | 0.00 | 100 | 1023.6 |
| 20260506232537 | 13 | 9 | 0.0 | 4.8 | 0.00 | 0.00 | 0.00 | 100 | 1023.7 |
| 20260506232031 | 13 | 329 | 1.6 | 6.4 | 0.00 | 0.00 | 0.00 | 100 | 1023.7 |
| 20260506231809 | 13 | 242 | 1.6 | 6.4 | 0.00 | 0.00 | 0.00 | 100 | 1023.7 |
| 20260506231032 | 13 | 238 | 1.6 | 4.8 | 0.00 | 0.00 | 0.00 | 100 | 1023.8 |
| 20260506230536 | 13 | 262 | 1.6 | 4.8 | 0.00 | 0.00 | 0.00 | 100 | 1023.7 |
| 20260506230040 | 13 | 169 | 1.6 | 4.8 | 0.00 | 0.00 | 0.00 | 100 | 1023.8 |
| 20260506225532 | 13 | 247 | 1.6 | 4.8 | 0.00 | 0.00 | 0.00 | 100 | 1023.6 |
| 20260506225037 | 13 | 264 | 0.0 | 4.8 | 0.00 | 0.00 | 0.00 | 100 | 1023.7 |
| 20260506224531 | 13 | 269 | 1.6 | 6.4 | 0.00 | 0.00 | 0.00 | 100 | 1023.7 |
| 20260506224316 | 13 | 15 | 1.6 | 6.4 | 0.00 | 0.00 | 0.00 | 100 | 1023.9 |
| 20260506223529 | 13 | 273 | 1.6 | 8.0 | 0.00 | 0.00 | 0.00 | 100 | 1024.0 |
| 20260506223312 | 13 | 320 | 1.6 | 8.0 | 0.00 | 0.00 | 0.00 | 100 | 1024.0 |
| 20260506222529 | 13 | 239 | 1.6 | 8.0 | 0.00 | 0.00 | 0.00 | 100 | 1024.0 |
| 20260506222028 | 13 | 241 | 1.6 | 8.0 | 0.00 | 0.00 | 0.00 | 100 | 1024.0 |
| 20260506221532 | 13 | 242 | 1.6 | 9.7 | 0.00 | 0.00 | 0.00 | 100 | 1023.9 |
| 20260506221310 | 13 | 206 | 1.6 | 9.7 | 0.00 | 0.00 | 0.00 | 100 | 1024.0 |
| 20260506220525 | 13 | 285 | 1.6 | 6.4 | 0.00 | 0.00 | 0.00 | 100 | 1023.9 |
| 20260506220029 | 13 | 213 | 1.6 | 6.4 | 0.00 | 0.00 | 0.00 | 100 | 1023.9 |
| 20260506215525 | 13 | 247 | 1.6 | 6.4 | 0.00 | 0.00 | 0.00 | 100 | 1023.9 |
| 20260506215025 | 13 | 266 | 1.6 | 6.4 | 0.00 | 0.00 | 0.00 | 100 | 1023.8 |
| 20260506214524 | 13 | 228 | 3.2 | 9.7 | 0.00 | 0.00 | 0.00 | 100 | 1023.8 |
| 20260506214022 | 13 | 273 | 1.6 | 9.7 | 0.00 | 0.00 | 0.00 | 100 | 1023.7 |
| 20260506213514 | 13 | 259 | 0.0 | 4.8 | 0.00 | 0.00 | 0.00 | 100 | 1023.7 |
| 20260506213014 | 13 | 239 | 1.6 | 4.8 | 0.00 | 0.00 | 0.00 | 100 | 1023.6 |
| 20260506212507 | 13 | 321 | 0.0 | 3.2 | 0.00 | 0.00 | 0.00 | 100 | 1023.7 |
| 20260506211955 | 13 | 273 | 0.0 | 4.8 | 0.00 | 0.00 | 0.00 | 100 | 1023.6 |
| 20260506211450 | 13 | 234 | 1.6 | 4.8 | 0.00 | 0.00 | 0.00 | 100 | 1023.7 |
| 20260506210942 | 13 | 276 | 1.6 | 8.0 | 0.00 | 0.00 | 0.00 | 100 | 1023.7 |
| 20260506210436 | 13 | 269 | 1.6 | 8.0 | 0.00 | 0.00 | 0.00 | 100 | 1023.7 |
| 20260506205930 | 13 | 273 | 1.6 | 9.7 | 0.00 | 0.00 | 0.00 | 100 | 1023.6 |
| 20260506205424 | 13 | 236 | 1.6 | 9.7 | 0.00 | 0.00 | 0.00 | 100 | 1023.7 |
| 20260506205208 | 13 | 280 | 1.6 | 9.7 | 0.00 | 0.00 | 0.00 | 100 | 1023.5 |
| 20260506204411 | 13 | 286 | 1.6 | 9.7 | 0.00 | 0.00 | 0.00 | 100 | 1023.5 |
| 20260506203906 | 13 | 243 | 1.6 | 6.4 | 0.00 | 0.00 | 0.00 | 100 | 1023.5 |
| 20260506203400 | 13 | 294 | 1.6 | 6.4 | 0.00 | 0.00 | 0.00 | 100 | 1023.5 |
| 20260506202854 | 13 | 296 | 1.6 | 6.4 | 0.00 | 0.00 | 0.00 | 100 | 1023.5 |
| 20260506202349 | 13 | 296 | 0.0 | 6.4 | 0.00 | 0.00 | 0.00 | 100 | 1023.5 |
| 20260506201843 | 13 | 316 | 0.0 | 4.8 | 0.00 | 0.00 | 0.00 | 100 | 1023.4 |
| 20260506201613 | 13 | 284 | 1.6 | 6.4 | 0.00 | 0.00 | 0.00 | 100 | 1023.5 |
| 20260506200830 | 13 | 254 | 1.6 | 6.4 | 0.00 | 0.00 | 0.00 | 100 | 1023.4 |
| 20260506200333 | 13 | 288 | 1.6 | 8.0 | 0.00 | 0.00 | 0.00 | 100 | 1023.5 |
| 20260506195819 | 13 | 228 | 1.6 | 8.0 | 0.00 | 0.00 | 0.00 | 100 | 1023.6 |
| 20260506195606 | 13 | 286 | 1.6 | 6.4 | 0.00 | 0.00 | 0.00 | 100 | 1023.7 |
| 20260506195046 | 13 | 244 | 1.6 | 6.4 | 0.00 | 0.00 | 0.00 | 100 | 1023.7 |
| 20260506194300 | 13 | 200 | 1.6 | 8.0 | 0.00 | 0.00 | 0.00 | 100 | 1023.7 |
| 20260506193755 | 13 | 235 | 3.2 | 8.0 | 0.00 | 0.00 | 0.00 | 100 | 1023.7 |
| 20260506193249 | 13 | 273 | 1.6 | 6.4 | 0.00 | 0.00 | 0.00 | 100 | 1023.5 |
| 20260506192742 | 13 | 35 | 1.6 | 6.4 | 0.00 | 0.00 | 0.00 | 100 | 1023.5 |
| 20260506192236 | 13 | 284 | 1.6 | 6.4 | 0.00 | 0.00 | 0.00 | 100 | 1023.5 |
| 20260506192010 | 13 | 12 | 1.6 | 6.4 | 0.00 | 0.00 | 0.00 | 100 | 1023.4 |
| 20260506191224 | 13 | 307 | 3.2 | 8.0 | 0.00 | 0.00 | 0.00 | 100 | 1023.5 |
| 20260506190720 | 13 | 28 | 3.2 | 8.0 | 0.00 | 0.00 | 0.00 | 100 | 1023.5 |
| 20260506190211 | 13 | 229 | 3.2 | 11.3 | 0.00 | 0.00 | 0.00 | 100 | 1023.5 |
| 20260506185708 | 13 | 265 | 3.2 | 11.3 | 0.00 | 0.00 | 0.00 | 100 | 1023.4 |
| 20260506185202 | 13 | 242 | 1.6 | 6.4 | 0.00 | 0.00 | 0.00 | 100 | 1023.5 |
| 20260506184654 | 13 | 292 | 1.6 | 8.0 | 0.00 | 0.00 | 0.00 | 100 | 1023.5 |
| 20260506184147 | 13 | 290 | 1.6 | 8.0 | 0.00 | 0.00 | 0.00 | 100 | 1023.4 |
| 20260506183642 | 13 | 300 | 1.6 | 6.4 | 0.00 | 0.00 | 0.00 | 100 | 1023.4 |
| 20260506183136 | 13 | 259 | 1.6 | 6.4 | 0.00 | 0.00 | 0.00 | 100 | 1023.3 |
| 20260506182629 | 13 | 312 | 1.6 | 6.4 | 0.00 | 0.00 | 0.00 | 100 | 1023.3 |
| 20260506182151 | 13 | 326 | 1.6 | 6.4 | 0.00 | 0.00 | 0.00 | 100 | 1023.1 |
| 20260506182141 | 13 | 296 | 1.6 | 6.4 | 0.00 | 0.00 | 0.00 | 100 | 1023.3 |
| 20260506181123 | 13 | 321 | 1.6 | 6.4 | 0.00 | 0.00 | 0.00 | 100 | 1023.0 |
| 20260506180840 | 13 | 268 | 1.6 | 6.4 | 0.00 | 0.00 | 0.00 | 100 | 1023.0 |
| 20260506175554 | 13 | 305 | 1.6 | 4.8 | 0.00 | 0.00 | 0.00 | 100 | 1022.8 |
| 20260506175058 | 13 | 355 | 1.6 | 6.4 | 0.00 | 0.00 | 0.00 | 100 | 1022.9 |
| 20260506174544 | 13 | 261 | 1.6 | 6.4 | 0.00 | 0.00 | 0.00 | 100 | 1022.7 |
| 20260506174035 | 13 | 344 | 1.6 | 6.4 | 0.00 | 0.00 | 0.00 | 100 | 1022.7 |
| 20260506173530 | 13 | 290 | 1.6 | 6.4 | 0.00 | 0.00 | 0.00 | 100 | 1022.8 |
| 20260506173255 | 13 | 269 | 1.6 | 4.8 | 0.00 | 0.00 | 0.00 | 100 | 1022.8 |
| 20260506172518 | 13 | 306 | 0.0 | 3.2 | 0.00 | 0.00 | 0.00 | 100 | 1022.7 |
| 20260506172015 | 13 | 304 | 0.0 | 1.6 | 0.00 | 0.00 | 0.00 | 100 | 1022.7 |
| 20260506171514 | 13 | 5 | 0.0 | 3.2 | 0.00 | 0.00 | 0.00 | 100 | 1022.8 |
| 20260506171014 | 13 | 9 | 1.6 | 6.4 | 0.00 | 0.00 | 0.00 | 100 | 1022.7 |
| 20260506170514 | 13 | 324 | 1.6 | 6.4 | 0.00 | 0.00 | 0.00 | 100 | 1022.5 |
| 20260506170023 | 13 | 292 | 1.6 | 6.4 | 0.00 | 0.00 | 0.00 | 100 | 1022.5 |
| 20260506165515 | 13 | 288 | 1.6 | 6.4 | 0.00 | 0.00 | 0.00 | 100 | 1022.7 |
| 20260506165028 | 13 | 310 | 0.0 | 6.4 | 0.00 | 0.00 | 0.00 | 100 | 1022.6 |
| 20260506164648 | 12 | 272 | 0.0 | 0.0 | 0.00 | 0.00 | 0.00 | 100 | 1022.5 |
| 20260506164644 | 12 | 272 | 0.0 | 0.0 | 0.00 | 0.00 | 0.00 | 100 | 1022.5 |
| 20260506164620 | 13 | 256 | 0.0 | 0.0 | 0.00 | 0.00 | 0.00 | 100 | 1022.6 |
| 20260506164049 | 13 | 273 | 0.0 | 0.0 | 0.00 | 0.00 | 0.00 | 100 | 1022.6 |
| 20260506162508 | 12 | 286 | 0.0 | 0.0 | 0.00 | 0.00 | 0.00 | 100 | 1022.5 |
| 20260506162009 | 12 | 319 | 0.0 | 0.0 | 0.00 | 0.00 | 0.00 | 100 | 1022.4 |
| 20260506161508 | 12 | 277 | 0.0 | 0.0 | 0.00 | 0.00 | 0.00 | 100 | 1022.5 |
| 20260506161007 | 12 | 261 | 0.0 | 0.0 | 0.00 | 0.00 | 0.00 | 100 | 1022.4 |
| 20260506160758 | 12 | 261 | 0.0 | 0.0 | 0.00 | 0.00 | 0.00 | 100 | 1022.5 |
| 20260506160006 | 12 | 261 | 0.0 | 0.0 | 0.00 | 0.00 | 0.00 | 100 | 1022.4 |
| 20260506155547 | 12 | 244 | 0.0 | 0.0 | 0.00 | 0.00 | 0.00 | 100 | 1022.5 |
| 20260506155521 | 12 | 261 | 0.0 | 0.0 | 0.00 | 0.00 | 0.00 | 100 | 1022.4 |
| 20260506154500 | 12 | 242 | 0.0 | 0.0 | 0.00 | 0.00 | 0.00 | 100 | 1022.3 |
| 20260506154000 | 12 | 242 | 0.0 | 0.0 | 0.00 | 0.00 | 0.00 | 100 | 1022.2 |
| 20260506153500 | 12 | 242 | 0.0 | 0.0 | 0.00 | 0.00 | 0.00 | 100 | 1022.2 |
| 20260506153000 | 12 | 300 | 0.0 | 0.0 | 0.00 | 0.00 | 0.00 | 100 | 1022.2 |
| 20260506152459 | 12 | 339 | 0.0 | 1.6 | 0.00 | 0.00 | 0.00 | 100 | 1022.0 |
| 20260506152000 | 12 | 339 | 0.0 | 1.6 | 0.00 | 0.00 | 0.00 | 100 | 1022.1 |
| 20260506151501 | 12 | 272 | 0.0 | 0.0 | 0.00 | 0.00 | 0.00 | 100 | 1021.9 |
| 20260506151000 | 12 | 272 | 0.0 | 1.6 | 0.00 | 0.00 | 0.00 | 100 | 1021.9 |
| 20260506150501 | 11 | 272 | 0.0 | 1.6 | 0.00 | 0.00 | 0.00 | 100 | 1021.9 |
| 20260506150001 | 11 | 272 | 0.0 | 0.0 | 0.00 | 0.00 | 0.00 | 100 | 1021.7 |
| 20260506145743 | 11 | 272 | 0.0 | 0.0 | 0.00 | 0.00 | 0.00 | 100 | 1021.7 |
| 20260506145001 | 11 | 272 | 0.0 | 0.0 | 0.00 | 0.00 | 0.00 | 100 | 1021.7 |
| 20260506144500 | 11 | 272 | 0.0 | 0.0 | 0.00 | 0.00 | 0.00 | 100 | 1021.9 |
| 20260506144000 | 11 | 272 | 0.0 | 0.0 | 0.00 | 0.00 | 0.00 | 100 | 1022.0 |
| 20260506143500 | 11 | 272 | 0.0 | 0.0 | 0.00 | 0.00 | 0.00 | 100 | 1022.0 |
| 20260506143005 | 11 | 272 | 0.0 | 0.0 | 0.00 | 0.00 | 0.00 | 100 | 1022.2 |
| 20260506142751 | 11 | 272 | 0.0 | 0.0 | 0.00 | 0.00 | 0.00 | 100 | 1022.0 |
| 20260506142005 | 11 | 272 | 0.0 | 0.0 | 0.00 | 0.00 | 0.00 | 100 | 1022.0 |
| 20260506141505 | 11 | 272 | 0.0 | 0.0 | 0.00 | 0.00 | 0.00 | 100 | 1022.0 |
| 20260506141233 | 11 | 272 | 0.0 | 0.0 | 0.00 | 0.00 | 0.00 | 100 | 1022.1 |
| 20260506140749 | 11 | 272 | 0.0 | 0.0 | 0.00 | 0.00 | 0.00 | 100 | 1022.2 |
| 20260506140007 | 11 | 272 | 0.0 | 0.0 | 0.00 | 0.00 | 0.00 | 100 | 1022.2 |
| 20260506135745 | 11 | 272 | 0.0 | 0.0 | 0.00 | 0.00 | 0.00 | 100 | 1022.1 |
| 20260506135003 | 11 | 272 | 0.0 | 0.0 | 0.00 | 0.00 | 0.00 | 100 | 1021.9 |
| 20260506134743 | 11 | 272 | 0.0 | 0.0 | 0.00 | 0.00 | 0.00 | 100 | 1021.7 |
| 20260506134001 | 11 | 272 | 0.0 | 0.0 | 0.00 | 0.00 | 0.00 | 100 | 1021.7 |
| 20260506133459 | 11 | 272 | 0.0 | 0.0 | 0.00 | 0.00 | 0.00 | 100 | 1021.8 |
| 20260506133000 | 11 | 272 | 0.0 | 0.0 | 0.00 | 0.00 | 0.00 | 100 | 1021.7 |
| 20260506132448 | 11 | 272 | 0.0 | 0.0 | 0.00 | 0.00 | 0.00 | 100 | 1021.7 |
| 20260506131943 | 11 | 272 | 0.0 | 0.0 | 0.00 | 0.00 | 0.00 | 100 | 1021.6 |
| 20260506131727 | 11 | 272 | 0.0 | 0.0 | 0.00 | 0.00 | 0.00 | 100 | 1021.6 |
| 20260506130930 | 11 | 272 | 0.0 | 0.0 | 0.00 | 0.00 | 0.00 | 100 | 1021.6 |
| 20260506130423 | 11 | 272 | 0.0 | 0.0 | 0.00 | 0.00 | 0.00 | 100 | 1021.6 |
| 20260506125917 | 11 | 272 | 0.0 | 0.0 | 0.00 | 0.00 | 0.00 | 100 | 1021.5 |
| 20260506125412 | 11 | 272 | 0.0 | 0.0 | 0.00 | 0.00 | 0.00 | 100 | 1021.4 |
| 20260506124905 | 11 | 272 | 0.0 | 0.0 | 0.00 | 0.00 | 0.00 | 100 | 1021.3 |
| 20260506124359 | 11 | 272 | 0.0 | 0.0 | 0.00 | 0.00 | 0.00 | 100 | 1021.2 |
| 20260506123857 | 11 | 272 | 0.0 | 0.0 | 0.00 | 0.00 | 0.00 | 100 | 1021.2 |
| 20260506123347 | 11 | 272 | 0.0 | 0.0 | 0.00 | 0.00 | 0.00 | 100 | 1021.2 |
| 20260506122850 | 11 | 272 | 0.0 | 0.0 | 0.00 | 0.00 | 0.00 | 100 | 1021.1 |
| 20260506122335 | 11 | 272 | 0.0 | 0.0 | 0.00 | 0.00 | 0.00 | 100 | 1021.1 |
| 20260506121831 | 11 | 272 | 0.0 | 0.0 | 0.00 | 0.00 | 0.00 | 100 | 1021.1 |
| 20260506121324 | 11 | 272 | 0.0 | 0.0 | 0.00 | 0.00 | 0.00 | 100 | 1021.0 |
| 20260506121313 | 11 | 272 | 0.0 | 0.0 | 0.00 | 0.00 | 0.00 | 100 | 1021.1 |
| 20260506120824 | 11 | 272 | 0.0 | 0.0 | 0.00 | 0.00 | 0.00 | 100 | 1021.1 |
| 20260506120311 | 11 | 272 | 0.0 | 0.0 | 0.00 | 0.00 | 0.00 | 100 | 1021.0 |
| 20260506115805 | 11 | 272 | 0.0 | 0.0 | 0.00 | 0.00 | 0.00 | 100 | 1021.0 |
| 20260506115259 | 11 | 272 | 0.0 | 0.0 | 0.00 | 0.00 | 0.00 | 100 | 1021.0 |
| 20260506114754 | 11 | 272 | 0.0 | 0.0 | 0.00 | 0.00 | 0.00 | 100 | 1020.9 |
| 20260506114552 | 11 | 272 | 0.0 | 0.0 | 0.00 | 0.00 | 0.00 | 100 | 1021.1 |
| 20260506114547 | 11 | 272 | 0.0 | 0.0 | 0.00 | 0.00 | 0.00 | 100 | 1021.0 |
| 20260506113238 | 11 | 272 | 0.0 | 0.0 | 0.00 | 0.00 | 0.00 | 100 | 1021.1 |
| 20260506112729 | 11 | 272 | 0.0 | 0.0 | 0.00 | 0.00 | 0.00 | 100 | 1021.1 |
| 20260506112223 | 11 | 272 | 0.0 | 0.0 | 0.00 | 0.00 | 0.00 | 100 | 1021.0 |
| 20260506112009 | 11 | 272 | 0.0 | 0.0 | 0.00 | 0.00 | 0.00 | 100 | 1021.0 |
| 20260506111211 | 11 | 272 | 0.0 | 0.0 | 0.00 | 0.00 | 0.00 | 100 | 1021.1 |
| 20260506110707 | 11 | 272 | 0.0 | 0.0 | 0.00 | 0.00 | 0.00 | 100 | 1021.1 |
| 20260506110200 | 11 | 272 | 0.0 | 0.0 | 0.00 | 0.00 | 0.00 | 100 | 1021.0 |
| 20260506105655 | 11 | 272 | 0.0 | 0.0 | 0.00 | 0.00 | 0.00 | 100 | 1021.0 |
| 20260506105147 | 11 | 272 | 0.0 | 0.0 | 0.00 | 0.00 | 0.00 | 100 | 1020.9 |
| 20260506104641 | 11 | 272 | 0.0 | 0.0 | 0.00 | 0.00 | 0.00 | 100 | 1020.9 |
| 20260506104137 | 11 | 272 | 0.0 | 0.0 | 0.00 | 0.00 | 0.00 | 100 | 1020.8 |
| 20260506103630 | 11 | 272 | 0.0 | 0.0 | 0.00 | 0.00 | 0.00 | 100 | 1020.9 |
| 20260506103124 | 11 | 272 | 0.0 | 0.0 | 0.00 | 0.00 | 0.00 | 100 | 1020.8 |
| 20260506102638 | 11 | 272 | 0.0 | 0.0 | 0.00 | 0.00 | 0.00 | 100 | 1020.6 |
| 20260506102629 | 11 | 272 | 0.0 | 0.0 | 0.00 | 0.00 | 0.00 | 100 | 1020.7 |
| 20260506101605 | 11 | 272 | 0.0 | 0.0 | 0.00 | 0.00 | 0.00 | 100 | 1020.5 |
| 20260506101100 | 11 | 272 | 0.0 | 0.0 | 0.00 | 0.00 | 0.00 | 100 | 1020.6 |
| 20260506100553 | 11 | 272 | 0.0 | 0.0 | 0.00 | 0.00 | 0.00 | 100 | 1020.6 |
| 20260506100048 | 11 | 272 | 0.0 | 0.0 | 0.00 | 0.00 | 0.00 | 100 | 1020.6 |
| 20260506095542 | 11 | 272 | 0.0 | 0.0 | 0.00 | 0.00 | 0.00 | 100 | 1020.6 |
| 20260506095036 | 11 | 272 | 0.0 | 0.0 | 0.00 | 0.00 | 0.00 | 100 | 1020.5 |
| 20260506094528 | 12 | 272 | 0.0 | 0.0 | 0.00 | 0.00 | 0.00 | 100 | 1020.4 |
| 20260506094023 | 12 | 272 | 0.0 | 0.0 | 0.00 | 0.00 | 0.00 | 100 | 1020.3 |
| 20260506093519 | 12 | 272 | 0.0 | 0.0 | 0.00 | 0.00 | 0.00 | 100 | 1020.3 |
| 20260506093013 | 12 | 272 | 0.0 | 0.0 | 0.00 | 0.00 | 0.00 | 100 | 1020.3 |
| 20260506092505 | 12 | 272 | 0.0 | 0.0 | 0.00 | 0.00 | 0.00 | 100 | 1020.4 |
| 20260506091959 | 12 | 272 | 0.0 | 0.0 | 0.00 | 0.00 | 0.00 | 100 | 1020.3 |
| 20260506091454 | 12 | 272 | 0.0 | 0.0 | 0.00 | 0.00 | 0.00 | 100 | 1020.3 |
| 20260506091229 | 12 | 272 | 0.0 | 0.0 | 0.00 | 0.00 | 0.00 | 100 | 1020.3 |
| 20260506090450 | 12 | 272 | 0.0 | 0.0 | 0.00 | 0.00 | 0.00 | 100 | 1020.2 |
| 20260506085934 | 12 | 272 | 0.0 | 0.0 | 0.00 | 0.00 | 0.00 | 100 | 1020.2 |
| 20260506085720 | 12 | 272 | 0.0 | 0.0 | 0.00 | 0.00 | 0.00 | 100 | 1020.2 |
| 20260506084925 | 12 | 272 | 0.0 | 0.0 | 0.00 | 0.00 | 0.00 | 100 | 1020.2 |
| 20260506084426 | 12 | 272 | 0.0 | 0.0 | 0.00 | 0.00 | 0.00 | 100 | 1020.2 |
| 20260506083913 | 12 | 272 | 0.0 | 0.0 | 0.00 | 0.00 | 0.00 | 100 | 1020.2 |
| 20260506083406 | 12 | 272 | 0.0 | 0.0 | 0.00 | 0.00 | 0.00 | 100 | 1020.2 |
| 20260506082905 | 12 | 272 | 0.0 | 0.0 | 0.00 | 0.00 | 0.00 | 100 | 1020.1 |
| 20260506082415 | 12 | 272 | 0.0 | 0.0 | 0.00 | 0.00 | 0.00 | 100 | 1020.2 |
| 20260506081904 | 12 | 272 | 0.0 | 0.0 | 0.00 | 0.00 | 0.00 | 100 | 1020.1 |
| 20260506081407 | 12 | 272 | 0.0 | 0.0 | 0.00 | 0.00 | 0.00 | 100 | 1019.9 |
| 20260506080901 | 12 | 272 | 0.0 | 0.0 | 0.00 | 0.00 | 0.00 | 100 | 1019.9 |